Time;durP1;ratioP1;P1;durP2;ratioP2;P2;SDS_P1;SDS_P2;PMS_P1;PMS_P2;Temp;Humidity;BMP_temperature;BMP_pressure;BME280_temperature;BME280_humidity;BME280_pressure;Samples;Min_cycle;Max_cycle;Signal;HPM_P1;HPM_P2
2020/11/23 00:02:23;;;;;;;6.8;3.1;;;;;;;;;;;;;
2020/11/23 00:04:48;;;;;;;3.8;2.2;;;;;;;;;;;;;
2020/11/23 00:07:13;;;;;;;2.5;1.8;;;;;;;;;;;;;
2020/11/23 00:09:38;;;;;;;1.9;1.6;;;;;;;;;;;;;
2020/11/23 00:12:03;;;;;;;3.2;1.6;;;;;;;;;;;;;
2020/11/23 00:14:29;;;;;;;2.1;1.4;;;;;;;;;;;;;
2020/11/23 00:16:54;;;;;;;1.7;1.4;;;;;;;;;;;;;
2020/11/23 00:19:20;;;;;;;2.3;1.3;;;;;;;;;;;;;
2020/11/23 00:21:45;;;;;;;3.5;1.6;;;;;;;;;;;;;
2020/11/23 00:24:12;;;;;;;4.4;1.5;;;;;;;;;;;;;
2020/11/23 00:26:37;;;;;;;2.5;1.4;;;;;;;;;;;;;
2020/11/23 00:29:03;;;;;;;5;1.5;;;;;;;;;;;;;
2020/11/23 00:31:28;;;;;;;2;1.2;;;;;;;;;;;;;
2020/11/23 00:33:54;;;;;;;2.6;1.3;;;;;;;;;;;;;
2020/11/23 00:36:19;;;;;;;2.1;1.7;;;;;;;;;;;;;
2020/11/23 00:38:46;;;;;;;2;1.8;;;;;;;;;;;;;
2020/11/23 00:41:11;;;;;;;1.1;1;;;;;;;;;;;;;
2020/11/23 00:43:36;;;;;;;2.1;0.9;;;;;;;;;;;;;
2020/11/23 00:46:01;;;;;;;2.3;0.7;;;;;;;;;;;;;
2020/11/23 00:48:30;;;;;;;1;0.9;;;;;;;;;;;;;
2020/11/23 00:50:55;;;;;;;2;0.9;;;;;;;;;;;;;
2020/11/23 00:53:20;;;;;;;4.4;1.5;;;;;;;;;;;;;
2020/11/23 00:55:45;;;;;;;1;0.9;;;;;;;;;;;;;
2020/11/23 00:58:10;;;;;;;2.8;1.4;;;;;;;;;;;;;
2020/11/23 01:00:36;;;;;;;2.2;1;;;;;;;;;;;;;
2020/11/23 01:03:01;;;;;;;0.9;0.9;;;;;;;;;;;;;
2020/11/23 01:05:26;;;;;;;1.6;1.2;;;;;;;;;;;;;
2020/11/23 01:07:53;;;;;;;1;0.7;;;;;;;;;;;;;
2020/11/23 01:10:18;;;;;;;1.9;1;;;;;;;;;;;;;
2020/11/23 01:12:44;;;;;;;1.5;0.8;;;;;;;;;;;;;
2020/11/23 01:15:09;;;;;;;2.3;0.8;;;;;;;;;;;;;
2020/11/23 01:17:35;;;;;;;1.2;1.1;;;;;;;;;;;;;
2020/11/23 01:20:01;;;;;;;1.4;1.2;;;;;;;;;;;;;
2020/11/23 01:22:26;;;;;;;1.9;1.3;;;;;;;;;;;;;
2020/11/23 01:24:51;;;;;;;3;1.1;;;;;;;;;;;;;
2020/11/23 01:27:16;;;;;;;1;0.9;;;;;;;;;;;;;
2020/11/23 01:29:41;;;;;;;1;0.9;;;;;;;;;;;;;
2020/11/23 01:32:06;;;;;;;1.3;0.8;;;;;;;;;;;;;
2020/11/23 01:34:32;;;;;;;1.2;0.9;;;;;;;;;;;;;
2020/11/23 01:36:57;;;;;;;0.6;0.5;;;;;;;;;;;;;
2020/11/23 01:39:22;;;;;;;0.8;0.8;;;;;;;;;;;;;
2020/11/23 01:41:47;;;;;;;1;0.9;;;;;;;;;;;;;
2020/11/23 01:44:12;;;;;;;2.7;1.1;;;;;;;;;;;;;
2020/11/23 01:46:38;;;;;;;0.9;0.8;;;;;;;;;;;;;
2020/11/23 01:49:03;;;;;;;1;0.6;;;;;;;;;;;;;
2020/11/23 01:51:29;;;;;;;1.9;1;;;;;;;;;;;;;
2020/11/23 01:53:55;;;;;;;1.3;1;;;;;;;;;;;;;
2020/11/23 01:56:20;;;;;;;1;0.9;;;;;;;;;;;;;
2020/11/23 01:58:45;;;;;;;1.5;1;;;;;;;;;;;;;
2020/11/23 02:01:12;;;;;;;1.3;0.8;;;;;;;;;;;;;
2020/11/23 02:03:38;;;;;;;2.2;1.1;;;;;;;;;;;;;
2020/11/23 02:06:05;;;;;;;1.3;0.9;;;;;;;;;;;;;
2020/11/23 02:08:30;;;;;;;2.3;1.1;;;;;;;;;;;;;
2020/11/23 02:11:00;;;;;;;1.1;0.8;;;;;;;;;;;;;
2020/11/23 02:13:28;;;;;;;1.7;0.7;;;;;;;;;;;;;
2020/11/23 02:15:53;;;;;;;0.7;0.7;;;;;;;;;;;;;
2020/11/23 02:18:20;;;;;;;0.9;0.7;;;;;;;;;;;;;
2020/11/23 02:20:45;;;;;;;0.8;0.6;;;;;;;;;;;;;
2020/11/23 02:23:10;;;;;;;1.2;0.9;;;;;;;;;;;;;
2020/11/23 02:25:35;;;;;;;0.7;0.7;;;;;;;;;;;;;
2020/11/23 02:28:07;;;;;;;0.4;0.4;;;;;;;;;;;;;
2020/11/23 02:30:35;;;;;;;1.2;0.5;;;;;;;;;;;;;
2020/11/23 02:33:01;;;;;;;0.5;0.5;;;;;;;;;;;;;
2020/11/23 02:35:27;;;;;;;0.8;0.6;;;;;;;;;;;;;
2020/11/23 02:37:59;;;;;;;0.9;0.8;;;;;;;;;;;;;
2020/11/23 02:40:28;;;;;;;1.3;0.9;;;;;;;;;;;;;
2020/11/23 02:42:53;;;;;;;1.1;0.6;;;;;;;;;;;;;
2020/11/23 02:45:20;;;;;;;7.4;1.1;;;;;;;;;;;;;
2020/11/23 02:47:46;;;;;;;1.7;1.1;;;;;;;;;;;;;
2020/11/23 02:50:17;;;;;;;1.3;0.7;;;;;;;;;;;;;
2020/11/23 02:52:44;;;;;;;1.9;1.1;;;;;;;;;;;;;
2020/11/23 02:55:09;;;;;;;0.6;0.6;;;;;;;;;;;;;
2020/11/23 02:57:36;;;;;;;0.9;0.8;;;;;;;;;;;;;
2020/11/23 03:00:02;;;;;;;1.2;1.1;;;;;;;;;;;;;
2020/11/23 03:02:28;;;;;;;1.2;0.8;;;;;;;;;;;;;
2020/11/23 03:04:54;;;;;;;0.9;0.8;;;;;;;;;;;;;
2020/11/23 03:07:20;;;;;;;2.9;1;;;;;;;;;;;;;
2020/11/23 03:09:45;;;;;;;1.8;0.9;;;;;;;;;;;;;
2020/11/23 03:12:10;;;;;;;3.5;0.8;;;;;;;;;;;;;
2020/11/23 03:14:35;;;;;;;0.5;0.5;;;;;;;;;;;;;
2020/11/23 03:17:02;;;;;;;1.5;0.7;;;;;;;;;;;;;
2020/11/23 03:19:27;;;;;;;1;0.9;;;;;;;;;;;;;
2020/11/23 03:21:52;;;;;;;0.7;0.6;;;;;;;;;;;;;
2020/11/23 03:24:19;;;;;;;1;0.7;;;;;;;;;;;;;
2020/11/23 03:26:44;;;;;;;2.9;0.8;;;;;;;;;;;;;
2020/11/23 03:29:10;;;;;;;2.2;0.9;;;;;;;;;;;;;
2020/11/23 03:31:35;;;;;;;0.4;0.4;;;;;;;;;;;;;
2020/11/23 03:34:01;;;;;;;2.6;0.9;;;;;;;;;;;;;
2020/11/23 03:36:26;;;;;;;1.3;0.9;;;;;;;;;;;;;
2020/11/23 03:38:52;;;;;;;0.8;0.6;;;;;;;;;;;;;
2020/11/23 03:41:17;;;;;;;2.8;0.7;;;;;;;;;;;;;
2020/11/23 03:43:43;;;;;;;1.9;0.8;;;;;;;;;;;;;
2020/11/23 03:46:09;;;;;;;1;0.8;;;;;;;;;;;;;
2020/11/23 03:48:34;;;;;;;0.4;0.4;;;;;;;;;;;;;
2020/11/23 03:51:29;;;;;;;0.6;0.5;;;;;;;;;;;;;
2020/11/23 03:53:54;;;;;;;1.1;0.9;;;;;;;;;;;;;
2020/11/23 03:56:19;;;;;;;0.7;0.4;;;;;;;;;;;;;
2020/11/23 03:59:17;;;;;;;4.1;0.5;;;;;;;2.91;78.97461;946.5358;;;;
2020/11/23 04:02:39;;;;;;;1.3;0.8;;;;;;;2.66;79.62207;946.5372;;;;
2020/11/23 04:05:08;;;;;;;1.5;0.9;;;;;;;2.63;79.97559;946.4855;;;;
2020/11/23 04:07:33;;;;;;;1.2;1;;;;;;;2.4;81.10938;946.52;;;;
2020/11/23 04:10:07;;;;;;;0.7;0.7;;;;;;;2.4;81.29785;946.5254;;;;
2020/11/23 04:12:36;;;;;;;0.8;0.8;;;;;;;2.33;81.59961;946.5193;;;;
2020/11/23 04:15:06;;;;;;;3.8;1.1;;;;;;;2.27;82.06934;946.5344;;;;
2020/11/23 04:17:32;;;;;;;2.9;0.9;;;;;;;2.28;82.01465;946.6041;;;;
2020/11/23 04:20:02;;;;;;;1.1;1;;;;;;;2.24;82.32129;946.6192;;;;
2020/11/23 04:22:28;;;;;;;1.8;1;;;;;;;2.28;82.27246;946.6575;;;;
2020/11/23 04:24:58;;;;;;;1.5;1;;;;;;;2.36;81.8623;946.6688;;;;
2020/11/23 04:27:24;;;;;;;2.1;1.3;;;;;;;2.28;81.94824;946.6286;;;;
2020/11/23 04:29:54;;;;;;;2.7;1.4;;;;;;;2.24;82.25488;946.6443;;;;
2020/11/23 04:32:19;;;;;;;0.7;0.7;;;;;;;2.35;81.9502;946.6676;;;;
2020/11/23 04:34:45;;;;;;;1.5;1;;;;;;;2.42;81.52734;946.6686;;;;
2020/11/23 04:37:10;;;;;;;1.7;1;;;;;;;2.54;81.12402;946.7338;;;;
2020/11/23 04:39:41;;;;;;;1.3;0.7;;;;;;;2.58;80.54883;946.7285;;;;
2020/11/23 04:42:06;;;;;;;3.3;1;;;;;;;2.48;80.83398;946.7825;;;;
2020/11/23 04:44:36;;;;;;;2.2;0.9;;;;;;;2.63;80.51367;946.8692;;;;
2020/11/23 04:47:01;;;;;;;1.1;0.9;;;;;;;2.68;80.04199;946.942;;;;
2020/11/23 04:49:30;;;;;;;1.4;1.1;;;;;;;2.63;80.04297;946.9745;;;;
2020/11/23 04:51:55;;;;;;;1.9;0.9;;;;;;;2.69;80.08887;946.9692;;;;
2020/11/23 04:54:25;;;;;;;1.2;1.1;;;;;;;2.65;80.34961;947.0464;;;;
2020/11/23 04:56:55;;;;;;;0.5;0.5;;;;;;;2.64;79.97559;947.0465;;;;
2020/11/23 04:59:20;;;;;;;2.5;1.3;;;;;;;2.58;80.15625;947.0203;;;;
2020/11/23 05:01:49;;;;;;;6;1.2;;;;;;;2.53;80.24805;947.1364;;;;
2020/11/23 05:04:15;;;;;;;1.3;0.9;;;;;;;2.53;80.15918;947.1041;;;;
2020/11/23 05:06:40;;;;;;;1;0.9;;;;;;;2.43;80.44238;947.1599;;;;
2020/11/23 05:09:09;;;;;;;1.6;0.9;;;;;;;2.46;80.75;947.1544;;;;
2020/11/23 05:11:38;;;;;;;7.9;1.6;;;;;;;2.42;80.66309;947.1682;;;;
2020/11/23 05:14:03;;;;;;;5.7;1.6;;;;;;;2.42;80.99902;947.2122;;;;
2020/11/23 05:16:31;;;;;;;1.4;1;;;;;;;2.33;81.07129;947.2264;;;;
2020/11/23 05:18:56;;;;;;;1.4;1;;;;;;;2.38;80.62305;947.2977;;;;
2020/11/23 05:21:22;;;;;;;1;0.9;;;;;;;2.28;80.72656;947.3002;;;;
2020/11/23 05:23:51;;;;;;;0.8;0.7;;;;;;;2.04;81.76855;947.3276;;;;
2020/11/23 05:26:18;;;;;;;1.6;0.9;;;;;;;1.93;82.69531;947.3727;;;;
2020/11/23 05:28:44;;;;;;;0.7;0.7;;;;;;;1.92;83.15332;947.3425;;;;
2020/11/23 05:31:09;;;;;;;1.5;1.2;;;;;;;1.96;82.94824;947.3822;;;;
2020/11/23 05:33:43;;;;;;;2.6;1.5;;;;;;;1.97;82.88477;947.4534;;;;
2020/11/23 05:36:06;;;;;;;2.8;0.9;;;;;;;2.03;82.51465;947.4464;;;;
2020/11/23 05:38:34;;;;;;;0.7;0.7;;;;;;;2.05;82.27344;947.4608;;;;
2020/11/23 05:41:02;;;;;;;1.3;0.9;;;;;;;2.04;82.10254;947.4924;;;;
2020/11/23 05:43:30;;;;;;;0.6;0.6;;;;;;;2.08;82.09766;947.5125;;;;
2020/11/23 05:45:55;;;;;;;1.6;1;;;;;;;2.01;82.21973;947.5628;;;;
2020/11/23 05:48:23;;;;;;;2.2;1.3;;;;;;;1.9;82.64648;947.5873;;;;
2020/11/23 05:50:48;;;;;;;3.9;1.5;;;;;;;1.92;82.88477;947.5042;;;;
2020/11/23 05:53:17;;;;;;;0.8;0.8;;;;;;;1.88;83.06641;947.5237;;;;
2020/11/23 05:55:44;;;;;;;1.2;1.1;;;;;;;1.98;82.95313;947.5479;;;;
2020/11/23 05:58:12;;;;;;;2.1;1.3;;;;;;;2.01;82.46582;947.5575;;;;
2020/11/23 06:00:37;;;;;;;1.6;1.2;;;;;;;2.01;82.5332;947.6063;;;;
2020/11/23 06:03:04;;;;;;;0.7;0.7;;;;;;;1.92;82.4375;947.4531;;;;
2020/11/23 06:05:29;;;;;;;6;1.6;;;;;;;1.89;82.76953;947.5538;;;;
2020/11/23 06:07:55;;;;;;;3;1.5;;;;;;;1.83;82.87891;947.551;;;;
2020/11/23 06:10:20;;;;;;;1;0.9;;;;;;;1.76;83.21289;947.535;;;;
2020/11/23 06:12:45;;;;;;;2.6;1.2;;;;;;;1.74;83.31055;947.5269;;;;
2020/11/23 06:15:12;;;;;;;1.7;1;;;;;;;1.81;83.22168;947.5803;;;;
2020/11/23 06:17:37;;;;;;;1.7;1.2;;;;;;;1.8;83.2627;947.6296;;;;
2020/11/23 06:20:02;;;;;;;4.8;0.8;;;;;;;1.88;83.05664;947.6647;;;;
2020/11/23 06:22:30;;;;;;;0.8;0.6;;;;;;;1.88;82.90039;947.7045;;;;
2020/11/23 06:24:54;;;;;;;0.5;0.5;;;;;;;1.95;82.86816;947.7036;;;;
2020/11/23 06:27:20;;;;;;;0.8;0.5;;;;;;;2.11;82.47461;947.7389;;;;
2020/11/23 06:29:45;;;;;;;1.1;0.5;;;;;;;2.17;81.82617;947.7029;;;;
2020/11/23 06:32:16;;;;;;;1.5;1.1;;;;;;;2.17;81.73438;947.7508;;;;
2020/11/23 06:35:11;;;;;;;1.1;0.8;;;;;;;2.04;82.25879;947.8222;;;;
2020/11/23 06:37:12;;;;;;;2.1;1;;;;;;;2.22;82.15918;947.8293;;;;
2020/11/23 06:39:45;;;;;;;1.7;0.9;;;;;;;2.12;82.33105;947.8572;;;;
2020/11/23 06:41:51;;;;;;;1.1;0.9;;;;;;;2.05;82.81055;947.9139;;;;
2020/11/23 06:44:16;;;;;;;1.9;1.2;;;;;;;2.13;82.90332;947.8798;;;;
2020/11/23 06:46:41;;;;;;;1.3;1.1;;;;;;;2.32;82.49219;947.9048;;;;
2020/11/23 06:49:07;;;;;;;2.5;1.5;;;;;;;2.56;81.92383;947.8478;;;;
2020/11/23 06:51:33;;;;;;;3.7;1.7;;;;;;;2.72;81.11426;948.0016;;;;
2020/11/23 06:53:59;;;;;;;1.8;1.6;;;;;;;2.84;80.60938;948.028;;;;
2020/11/23 06:56:24;;;;;;;1.7;1.3;;;;;;;2.94;79.69727;948.0914;;;;
2020/11/23 06:58:50;;;;;;;1.9;1.2;;;;;;;2.98;79.61426;948.1052;;;;
2020/11/23 07:01:16;;;;;;;3.2;1.7;;;;;;;3.06;79.21387;948.1738;;;;
2020/11/23 07:03:42;;;;;;;4;1.9;;;;;;;3.09;78.59277;948.2137;;;;
2020/11/23 07:06:07;;;;;;;4.9;2.4;;;;;;;2.88;80.44824;948.2502;;;;
2020/11/23 07:08:33;;;;;;;3.5;1.9;;;;;;;2.96;79.83496;948.2914;;;;
2020/11/23 07:10:58;;;;;;;2.9;2;;;;;;;2.96;79.0498;948.2939;;;;
2020/11/23 07:13:25;;;;;;;2;1.5;;;;;;;2.84;79.20703;948.3331;;;;
2020/11/23 07:15:51;;;;;;;3;1.7;;;;;;;2.7;80.0459;948.3858;;;;
2020/11/23 07:18:19;;;;;;;7.6;2;;;;;;;2.73;80.20801;948.3441;;;;
2020/11/23 07:20:52;;;;;;;1.8;1.1;;;;;;;2.78;80.12598;948.4041;;;;
2020/11/23 07:23:17;;;;;;;1.2;0.9;;;;;;;2.94;79.57422;948.3173;;;;
2020/11/23 07:25:46;;;;;;;1.4;1.1;;;;;;;2.96;79.34277;948.2926;;;;
2020/11/23 07:28:11;;;;;;;3;1.5;;;;;;;3.1;79.35742;948.19;;;;
2020/11/23 07:30:40;;;;;;;1.5;1;;;;;;;3.57;78.55762;948.2459;;;;
2020/11/23 07:33:08;;;;;;;2.1;1.1;;;;;;;4.02;76.38086;948.1853;;;;
2020/11/23 07:35:33;;;;;;;3.3;0.9;;;;;;;4.17;74.92188;948.1989;;;;
2020/11/23 07:37:59;;;;;;;2.8;1.3;;;;;;;4.31;74.73145;948.1429;;;;
2020/11/23 07:40:24;;;;;;;3.2;2.2;;;;;;;4.36;74.28125;948.1607;;;;
2020/11/23 07:42:49;;;;;;;2.1;1.6;;;;;;;4.24;74.14648;948.2636;;;;
2020/11/23 07:45:16;;;;;;;3.3;0.8;;;;;;;4.13;74.94922;948.1953;;;;
2020/11/23 07:47:41;;;;;;;4.3;1.3;;;;;;;3.95;75.52441;948.1894;;;;
2020/11/23 07:50:09;;;;;;;9.9;3.6;;;;;;;3.91;76.06738;948.3141;;;;
2020/11/23 07:52:34;;;;;;;10.3;4.2;;;;;;;3.72;76.33691;948.257;;;;
2020/11/23 07:55:00;;;;;;;9.3;3.6;;;;;;;3.63;76.96289;948.1716;;;;
2020/11/23 07:57:25;;;;;;;7.7;2.8;;;;;;;3.7;76.93066;948.2011;;;;
2020/11/23 07:59:50;;;;;;;5.3;1.8;;;;;;;3.91;76.76563;948.1842;;;;
2020/11/23 08:02:20;;;;;;;3.8;1.8;;;;;;;4.19;76.07227;948.1959;;;;
2020/11/23 08:04:41;;;;;;;6;2.2;;;;;;;4.41;75.07813;948.1241;;;;
2020/11/23 08:07:07;;;;;;;7;1.6;;;;;;;4.44;74.50781;948.1511;;;;
2020/11/23 08:09:32;;;;;;;4.3;2.1;;;;;;;4.39;74.46582;948.095;;;;
2020/11/23 08:11:58;;;;;;;2.8;1.8;;;;;;;4.66;74.60352;948.0975;;;;
2020/11/23 08:14:34;;;;;;;3.1;1.8;;;;;;;4.91;73.69922;948.0914;;;;
2020/11/23 08:16:51;;;;;;;3.2;2.1;;;;;;;5.07;72.52148;948.1668;;;;
2020/11/23 08:19:16;;;;;;;4.3;2.6;;;;;;;5.27;72.56641;948.1303;;;;
2020/11/23 08:21:43;;;;;;;6.3;2.9;;;;;;;5.39;71.60449;948.1785;;;;
2020/11/23 08:24:08;;;;;;;5.1;2.3;;;;;;;5.62;70.27832;948.1503;;;;
2020/11/23 08:26:33;;;;;;;5.5;2.7;;;;;;;5.72;70.67871;948.1683;;;;
2020/11/23 08:28:59;;;;;;;5.4;2.4;;;;;;;6.22;69.94629;948.0995;;;;
2020/11/23 08:31:26;;;;;;;1.9;1.5;;;;;;;6.13;67.24219;947.9531;;;;
2020/11/23 08:33:51;;;;;;;3.6;1.8;;;;;;;5.8;68.37695;948.0327;;;;
2020/11/23 08:36:18;;;;;;;3.3;1.7;;;;;;;6.16;67.96973;948.0019;;;;
2020/11/23 08:38:43;;;;;;;2.1;1.6;;;;;;;7.05;65.18945;948.0105;;;;
2020/11/23 08:41:10;;;;;;;2.4;1.2;;;;;;;7.43;64.51074;948.0229;;;;
2020/11/23 08:43:35;;;;;;;2.1;1.6;;;;;;;7.62;63.46289;948.0889;;;;
2020/11/23 08:46:02;;;;;;;3.7;1.8;;;;;;;7.86;62.81641;948.0422;;;;
2020/11/23 08:48:27;;;;;;;3.2;1.4;;;;;;;7.9;61.3584;947.9777;;;;
2020/11/23 08:50:52;;;;;;;4.6;1.5;;;;;;;7.97;60.70996;947.9872;;;;
2020/11/23 08:53:18;;;;;;;5.3;1.6;;;;;;;7.86;61.03516;948.035;;;;
2020/11/23 08:55:46;;;;;;;2.3;1.5;;;;;;;7.96;61.86621;948.0569;;;;
2020/11/23 08:58:15;;;;;;;4.8;1.2;;;;;;;7.95;60.08301;948.0151;;;;
2020/11/23 09:00:39;;;;;;;3;1.9;;;;;;;7.8;60.63086;948.0184;;;;
2020/11/23 09:03:06;;;;;;;1.3;1;;;;;;;7.46;60.35449;948.1111;;;;
2020/11/23 09:05:31;;;;;;;2.4;1.6;;;;;;;7.38;62.34863;948.1514;;;;
2020/11/23 09:07:58;;;;;;;2.7;1.7;;;;;;;7.45;61.36328;948.1633;;;;
2020/11/23 09:10:23;;;;;;;2.7;1.4;;;;;;;7.62;61.16113;948.2522;;;;
2020/11/23 09:12:49;;;;;;;1.3;0.9;;;;;;;7.75;59.97656;948.1845;;;;
2020/11/23 09:15:14;;;;;;;1.3;1;;;;;;;7.77;59.42383;948.2576;;;;
2020/11/23 09:17:41;;;;;;;2.7;1.4;;;;;;;7.84;59.78418;948.2366;;;;
2020/11/23 09:20:06;;;;;;;4.4;2;;;;;;;7.81;60.12012;948.2601;;;;
2020/11/23 09:22:33;;;;;;;4.1;1.8;;;;;;;7.76;60.96289;948.2967;;;;
2020/11/23 09:24:58;;;;;;;2.2;1.4;;;;;;;7.71;61.15137;948.3538;;;;
2020/11/23 09:27:24;;;;;;;1.8;1.1;;;;;;;7.34;60.9043;948.3298;;;;
2020/11/23 09:29:49;;;;;;;2.2;1;;;;;;;7.27;59.7832;948.3414;;;;
2020/11/23 09:32:17;;;;;;;6.6;0.9;;;;;;;7.27;60.47559;948.3273;;;;
2020/11/23 09:34:42;;;;;;;4.3;1.1;;;;;;;7.44;60.18164;948.3425;;;;
2020/11/23 09:37:08;;;;;;;2.2;1.3;;;;;;;7.68;59.6709;948.3923;;;;
2020/11/23 09:39:33;;;;;;;2.7;1;;;;;;;7.84;59.89844;948.3691;;;;
2020/11/23 09:42:00;;;;;;;3.8;1.1;;;;;;;8.07;59.72559;948.3663;;;;
2020/11/23 09:44:25;;;;;;;5.6;1.2;;;;;;;8.22;59.03125;948.3504;;;;
2020/11/23 09:46:52;;;;;;;2.8;0.8;;;;;;;8.24;59.58984;948.3441;;;;
2020/11/23 09:49:17;;;;;;;4;1.5;;;;;;;8.22;59.00879;948.3409;;;;
2020/11/23 09:51:44;;;;;;;1.5;0.7;;;;;;;8.28;58.34668;948.2827;;;;
2020/11/23 09:54:08;;;;;;;1.5;0.8;;;;;;;8.37;57.61914;948.3414;;;;
2020/11/23 09:56:35;;;;;;;0.6;0.6;;;;;;;8.29;58.58691;948.3091;;;;
2020/11/23 09:59:00;;;;;;;1.9;0.8;;;;;;;8.31;59.43945;948.335;;;;
2020/11/23 10:01:27;;;;;;;3;1.3;;;;;;;8.11;58.3916;948.3091;;;;
2020/11/23 10:03:53;;;;;;;1.9;0.7;;;;;;;8.09;59.03613;948.3156;;;;
2020/11/23 10:06:19;;;;;;;1.2;0.7;;;;;;;8.14;57.72559;948.3187;;;;
2020/11/23 10:08:44;;;;;;;0.9;0.5;;;;;;;8.28;57.33594;948.3683;;;;
2020/11/23 10:11:10;;;;;;;1.5;0.9;;;;;;;8.23;56.54492;948.3261;;;;
2020/11/23 10:13:35;;;;;;;0.5;0.5;;;;;;;8.47;53.68945;948.2021;;;;
2020/11/23 10:16:02;;;;;;;2;0.8;;;;;;;8.83;52.66602;948.2852;;;;
2020/11/23 10:18:28;;;;;;;0.5;0.5;;;;;;;9.24;52.12402;948.2849;;;;
2020/11/23 10:20:53;;;;;;;0.4;0.4;;;;;;;9.17;51.47852;948.2891;;;;
2020/11/23 10:23:18;;;;;;;1.4;0.8;;;;;;;9.49;51.00391;948.2516;;;;
2020/11/23 10:25:46;;;;;;;0.5;0.5;;;;;;;9.8;49.94727;948.2433;;;;
2020/11/23 10:28:11;;;;;;;1;0.7;;;;;;;10.27;48.38086;948.1873;;;;
2020/11/23 10:30:40;;;;;;;1.1;0.6;;;;;;;10.36;46.15332;948.1624;;;;
2020/11/23 10:33:07;;;;;;;0.6;0.5;;;;;;;10.62;45.80469;948.1107;;;;
2020/11/23 10:35:33;;;;;;;0.8;0.6;;;;;;;10.8;45.62988;948.1345;;;;
2020/11/23 10:37:59;;;;;;;0.6;0.3;;;;;;;10.97;43.62402;948.1387;;;;
2020/11/23 10:40:24;;;;;;;0.6;0.5;;;;;;;10.89;43.58203;948.0898;;;;
2020/11/23 10:42:51;;;;;;;1.3;0.5;;;;;;;10.98;43.43066;948.1031;;;;
2020/11/23 10:45:16;;;;;;;2.1;0.4;;;;;;;11.12;43.25098;948.125;;;;
2020/11/23 10:47:46;;;;;;;0.8;0.4;;;;;;;11.33;40.99512;948.1595;;;;
2020/11/23 10:50:11;;;;;;;4.2;1.2;;;;;;;11.32;42.87012;948.1202;;;;
2020/11/23 10:52:36;;;;;;;1.3;0.7;;;;;;;11.42;47.0791;948.0637;;;;
2020/11/23 10:55:02;;;;;;;1.8;0.5;;;;;;;11.71;42.53223;948.1054;;;;
2020/11/23 10:57:28;;;;;;;0.7;0.5;;;;;;;11.92;41.63477;948.0734;;;;
2020/11/23 10:59:53;;;;;;;0.4;0.4;;;;;;;11.9;40.94629;948.0491;;;;
2020/11/23 11:02:19;;;;;;;0.1;0.1;;;;;;;11.91;40.85547;948.0605;;;;
2020/11/23 11:04:44;;;;;;;0.6;0.4;;;;;;;12.09;41.02148;948.0452;;;;
2020/11/23 11:07:10;;;;;;;0.5;0.4;;;;;;;12.14;39.19336;948.0668;;;;
2020/11/23 11:09:34;;;;;;;0.2;0.2;;;;;;;12.24;39.31641;948.0714;;;;
2020/11/23 11:12:00;;;;;;;0.6;0.4;;;;;;;12.34;38.52344;948.0262;;;;
2020/11/23 11:14:27;;;;;;;1.1;0.4;;;;;;;12.48;38.37402;947.9906;;;;
2020/11/23 11:16:52;;;;;;;0.9;0.3;;;;;;;12.47;37.61621;947.9689;;;;
2020/11/23 11:19:20;;;;;;;0.5;0.3;;;;;;;12.42;37.94531;947.9792;;;;
2020/11/23 11:21:47;;;;;;;0.9;0.7;;;;;;;12.46;38.39551;947.9822;;;;
2020/11/23 11:24:11;;;;;;;0.8;0.6;;;;;;;12.37;39.3623;947.97;;;;
2020/11/23 11:26:38;;;;;;;0.4;0.4;;;;;;;12.38;37.79199;947.891;;;;
2020/11/23 11:29:03;;;;;;;1.3;0.8;;;;;;;12.29;39.37891;947.8983;;;;
2020/11/23 11:31:31;;;;;;;0.4;0.4;;;;;;;12.3;38.0957;947.9224;;;;
2020/11/23 11:33:56;;;;;;;0.5;0.2;;;;;;;12.36;38.58301;947.8859;;;;
2020/11/23 11:36:21;;;;;;;0.5;0.4;;;;;;;12.46;39.33594;947.9135;;;;
2020/11/23 11:38:46;;;;;;;0.4;0.3;;;;;;;12.24;37.31055;947.7983;;;;
2020/11/23 11:41:13;;;;;;;0.8;0.2;;;;;;;12.37;38.25;947.7888;;;;
2020/11/23 11:43:37;;;;;;;0.4;0.3;;;;;;;12.73;37.57031;947.8322;;;;
2020/11/23 11:46:06;;;;;;;4.9;0.9;;;;;;;12.89;36.12695;947.7952;;;;
2020/11/23 11:48:31;;;;;;;0.6;0.2;;;;;;;13.19;35.87598;947.7988;;;;
2020/11/23 11:50:56;;;;;;;0.3;0.3;;;;;;;13.47;37.02441;947.7224;;;;
2020/11/23 11:53:21;;;;;;;0.4;0.4;;;;;;;13.52;35.47754;947.7703;;;;
2020/11/23 11:55:48;;;;;;;0.3;0.3;;;;;;;13.58;34.9541;947.759;;;;
2020/11/23 11:58:13;;;;;;;0.2;0.2;;;;;;;13.61;35.05859;947.725;;;;
2020/11/23 12:00:42;;;;;;;1.4;0.3;;;;;;;13.67;35.31738;947.7534;;;;
2020/11/23 12:03:11;;;;;;;1.2;0.5;;;;;;;13.69;36.52734;947.7032;;;;
2020/11/23 12:05:36;;;;;;;0.1;0.1;;;;;;;13.78;35.84473;947.7307;;;;
2020/11/23 12:08:02;;;;;;;1.2;0.7;;;;;;;13.93;35.39551;947.7272;;;;
2020/11/23 12:10:27;;;;;;;0.3;0.2;;;;;;;14.19;35.39355;947.699;;;;
2020/11/23 12:12:55;;;;;;;4.8;0.5;;;;;;;14.27;34.72168;947.7203;;;;
2020/11/23 12:15:20;;;;;;;0.1;0.1;;;;;;;14.45;34.22852;947.758;;;;
2020/11/23 12:17:49;;;;;;;0.3;0.3;;;;;;;14.17;34.59863;947.8086;;;;
2020/11/23 12:20:16;;;;;;;0.6;0.2;;;;;;;13.8;34.87891;947.7773;;;;
2020/11/23 12:22:42;;;;;;;1.4;0.3;;;;;;;13.75;35.95605;947.7928;;;;
2020/11/23 12:25:07;;;;;;;2.3;0.5;;;;;;;12.98;38.10938;947.8572;;;;
2020/11/23 12:27:32;;;;;;;1.1;0.8;;;;;;;12.92;37.53027;947.7285;;;;
2020/11/23 12:29:57;;;;;;;0.3;0.3;;;;;;;13.08;36.44141;947.8112;;;;
2020/11/23 12:32:24;;;;;;;0.5;0.3;;;;;;;12.81;37.16406;947.8095;;;;
2020/11/23 12:34:49;;;;;;;0.1;0.1;;;;;;;13.06;37.51855;947.8109;;;;
2020/11/23 12:37:16;;;;;;;0.9;0.7;;;;;;;13.49;36.09668;947.7875;;;;
2020/11/23 12:39:41;;;;;;;1.8;0.5;;;;;;;13.43;36.12598;947.7386;;;;
2020/11/23 12:42:09;;;;;;;0.2;0.2;;;;;;;13.56;37.19434;947.738;;;;
2020/11/23 12:44:34;;;;;;;1.3;0.5;;;;;;;13.73;35.97754;947.7564;;;;
2020/11/23 12:46:59;;;;;;;0.6;0.5;;;;;;;13.57;35.75781;947.7734;;;;
2020/11/23 12:49:24;;;;;;;0.4;0.3;;;;;;;12.95;35.0752;947.753;;;;
2020/11/23 12:51:51;;;;;;;0.4;0.3;;;;;;;13.33;34.81934;947.7665;;;;
2020/11/23 12:54:16;;;;;;;0.3;0.3;;;;;;;12.96;35.14551;947.7442;;;;
2020/11/23 12:56:43;;;;;;;2.3;0.6;;;;;;;13.49;35.02637;947.7307;;;;
2020/11/23 12:59:08;;;;;;;1.1;0.5;;;;;;;13.92;32.09277;947.7102;;;;
2020/11/23 13:01:39;;;;;;;0.3;0.3;;;;;;;13.91;31.75781;947.7173;;;;
2020/11/23 13:04:06;;;;;;;0.2;0.2;;;;;;;13.91;31.78027;947.6764;;;;
2020/11/23 13:06:35;;;;;;;0.7;0.3;;;;;;;13.78;32.3584;947.7467;;;;
2020/11/23 13:09:00;;;;;;;1.4;0.6;;;;;;;14.01;32.82422;947.6183;;;;
2020/11/23 13:11:25;;;;;;;1;0.3;;;;;;;13.75;33.3916;947.7111;;;;
2020/11/23 13:13:51;;;;;;;0.5;0.3;;;;;;;13.7;34.07813;947.7073;;;;
2020/11/23 13:16:16;;;;;;;0.3;0.2;;;;;;;13.3;34.06934;947.7822;;;;
2020/11/23 13:18:42;;;;;;;3.5;0.4;;;;;;;13.49;34.19922;947.761;;;;
2020/11/23 13:21:07;;;;;;;0.3;0.2;;;;;;;13.63;32.72754;947.7264;;;;
2020/11/23 13:23:34;;;;;;;0.5;0.3;;;;;;;13.73;32.72266;947.6556;;;;
2020/11/23 13:25:59;;;;;;;4.3;0.3;;;;;;;13.69;33.39844;947.7255;;;;
2020/11/23 13:28:25;;;;;;;3.7;0.3;;;;;;;13.68;33.45508;947.699;;;;
2020/11/23 13:30:50;;;;;;;0.8;0.7;;;;;;;13.7;33.65137;947.801;;;;
2020/11/23 13:33:16;;;;;;;1.2;0.5;;;;;;;13.78;32.83008;947.7851;;;;
2020/11/23 13:35:42;;;;;;;0.5;0.5;;;;;;;13.78;34.04883;947.8467;;;;
2020/11/23 13:38:07;;;;;;;0.4;0.2;;;;;;;14.11;33.25781;947.8369;;;;
2020/11/23 13:40:33;;;;;;;1.6;0.7;;;;;;;14.79;31.70703;947.8448;;;;
2020/11/23 13:42:58;;;;;;;0.9;0.5;;;;;;;15.42;29.99805;947.8434;;;;
2020/11/23 13:45:25;;;;;;;1;0.5;;;;;;;16.28;30.38086;947.8246;;;;
2020/11/23 13:47:50;;;;;;;0.5;0.4;;;;;;;16.15;30.11719;947.8561;;;;
2020/11/23 13:50:16;;;;;;;0.3;0.3;;;;;;;16.6;29.4873;947.7942;;;;
2020/11/23 13:52:41;;;;;;;0.1;0.1;;;;;;;17.15;28.04102;947.7997;;;;
2020/11/23 13:55:09;;;;;;;0.3;0.3;;;;;;;18.64;26.37988;947.796;;;;
2020/11/23 13:57:34;;;;;;;0.5;0.4;;;;;;;18.69;25.63867;947.7093;;;;
2020/11/23 13:59:59;;;;;;;0.6;0.5;;;;;;;18.28;26.21875;947.7632;;;;
2020/11/23 14:02:24;;;;;;;1.6;0.5;;;;;;;17.36;27.17285;947.7805;;;;
2020/11/23 14:04:52;;;;;;;1;0.4;;;;;;;16.41;29.58008;947.8563;;;;
2020/11/23 14:07:17;;;;;;;2.7;0.7;;;;;;;15.67;30.66211;947.9402;;;;
2020/11/23 14:09:42;;;;;;;1.5;0.7;;;;;;;14.3;33.54883;947.8513;;;;
2020/11/23 14:12:07;;;;;;;0.8;0.6;;;;;;;13.68;35.41016;947.9288;;;;
2020/11/23 14:14:34;;;;;;;1.2;0.8;;;;;;;13.01;36.25098;947.9073;;;;
2020/11/23 14:16:59;;;;;;;3.3;1.2;;;;;;;12.38;38.10156;947.915;;;;
2020/11/23 14:19:25;;;;;;;2;1.3;;;;;;;12.14;38.54004;947.9416;;;;
2020/11/23 14:21:50;;;;;;;1.3;0.9;;;;;;;12.01;39.86914;947.9539;;;;
2020/11/23 14:24:17;;;;;;;5;1.3;;;;;;;11.93;40.01074;947.954;;;;
2020/11/23 14:26:42;;;;;;;1.4;1;;;;;;;12.44;39.86328;947.9084;;;;
2020/11/23 14:29:08;;;;;;;3.7;1.7;;;;;;;12.95;38.20996;948.0111;;;;
2020/11/23 14:31:33;;;;;;;4.5;1.7;;;;;;;12.9;38.97461;947.9567;;;;
2020/11/23 14:34:00;;;;;;;2.1;1.2;;;;;;;12.8;38.72461;947.9333;;;;
2020/11/23 14:36:24;;;;;;;1.8;1.2;;;;;;;12.72;38.15527;947.9839;;;;
2020/11/23 14:38:52;;;;;;;5.2;2.1;;;;;;;12.38;39.91406;947.975;;;;
2020/11/23 14:41:17;;;;;;;3.3;1.3;;;;;;;11.92;41.39453;948.0575;;;;
2020/11/23 14:43:43;;;;;;;3;1.6;;;;;;;11.53;41.9873;948.0589;;;;
2020/11/23 14:46:08;;;;;;;8.2;1.5;;;;;;;11.11;44.09668;948.0355;;;;
2020/11/23 14:48:34;;;;;;;2.4;0.8;;;;;;;10.81;45.4707;948.0422;;;;
2020/11/23 14:50:59;;;;;;;1.4;1.1;;;;;;;10.43;45.32813;947.9903;;;;
2020/11/23 14:53:25;;;;;;;14.6;1.6;;;;;;;10.29;46.61426;947.9688;;;;
2020/11/23 14:55:50;;;;;;;6.1;2.3;;;;;;;10.21;47.22168;948.0134;;;;
2020/11/23 14:58:17;;;;;;;4.1;2;;;;;;;10.06;47.52539;948.0179;;;;
2020/11/23 15:00:42;;;;;;;4.1;1.6;;;;;;;9.7;50.39063;948.0876;;;;
2020/11/23 15:03:10;;;;;;;3.5;1.7;;;;;;;9.57;49.21387;948.0486;;;;
2020/11/23 15:05:35;;;;;;;3.4;1.7;;;;;;;9.5;49.77539;948.0467;;;;
2020/11/23 15:08:02;;;;;;;1.8;1.4;;;;;;;9.43;50.41699;948.09;;;;
2020/11/23 15:10:27;;;;;;;3.1;1.1;;;;;;;9.34;50.18848;947.9359;;;;
2020/11/23 15:12:52;;;;;;;7.9;2.5;;;;;;;9.19;51.09375;948.0154;;;;
2020/11/23 15:15:17;;;;;;;5.6;1.7;;;;;;;8.83;51.47266;947.9185;;;;
2020/11/23 15:17:43;;;;;;;3.4;1.5;;;;;;;8.62;52.4248;948.032;;;;
2020/11/23 15:20:08;;;;;;;4.4;2;;;;;;;8.47;53.15625;948.0101;;;;
2020/11/23 15:22:34;;;;;;;4.5;2.3;;;;;;;8.25;53.2998;948.0103;;;;
2020/11/23 15:24:59;;;;;;;3.5;1.7;;;;;;;8.17;53.76758;948.1509;;;;
2020/11/23 15:27:24;;;;;;;4;1.5;;;;;;;8.13;54.50977;948.0913;;;;
2020/11/23 15:29:52;;;;;;;2.7;1.3;;;;;;;8.11;55.35938;948.1668;;;;
2020/11/23 15:32:17;;;;;;;2.8;1.7;;;;;;;8.07;56.45605;948.1569;;;;
2020/11/23 15:34:45;;;;;;;3;1.7;;;;;;;8.01;56.70801;948.1655;;;;
2020/11/23 15:37:10;;;;;;;2.3;1.3;;;;;;;7.88;56.35156;948.1563;;;;
2020/11/23 15:39:36;;;;;;;11.7;1.6;;;;;;;7.8;56.3291;948.1752;;;;